Time;durP1;ratioP1;P1;durP2;ratioP2;P2;SDS_P1;SDS_P2;PMS_P1;PMS_P2;Temp;Humidity;BMP_temperature;BMP_pressure;BME280_temperature;BME280_humidity;BME280_pressure;Samples;Min_cycle;Max_cycle;Signal;HPM_P1;HPM_P2
2024/03/20 00:02:13;;;;;;;20.77;12.10;;;8.70;99.90;;;;;;5050816;28;20277;-80
2024/03/20 00:04:39;;;;;;;21.07;12.57;;;8.70;99.90;;;;;;5053523;28;20241;-80
2024/03/20 00:07:08;;;;;;;20.23;11.93;;;8.60;99.90;;;;;;5052498;28;20270;-80
2024/03/20 00:09:35;;;;;;;22.40;12.60;;;8.60;99.90;;;;;;5054534;28;20656;-80
2024/03/20 00:12:02;;;;;;;21.70;12.17;;;8.70;1.00;;;;;;5055087;28;20720;-80
2024/03/20 00:14:29;;;;;;;24.93;12.80;;;8.60;99.90;;;;;;5059485;28;20625;-80
2024/03/20 00:16:56;;;;;;;23.70;12.50;;;8.70;1.00;;;;;;5052992;28;20205;-80
2024/03/20 00:19:24;;;;;;;23.70;12.93;;;8.70;1.00;;;;;;5065789;28;20199;-80
2024/03/20 00:21:51;;;;;;;22.20;11.83;;;8.70;1.00;;;;;;5057124;28;20575;-80
2024/03/20 00:24:19;;;;;;;24.83;13.30;;;8.70;1.00;;;;;;5059454;28;20207;-81
2024/03/20 00:26:48;;;;;;;22.30;12.63;;;8.80;1.00;;;;;;5064563;28;20202;-81
2024/03/20 00:29:16;;;;;;;23.93;13.13;;;8.80;1.00;;;;;;5068167;28;20717;-81
2024/03/20 00:31:43;;;;;;;21.63;12.13;;;8.80;1.00;;;;;;5066228;28;20608;-81
2024/03/20 00:34:10;;;;;;;20.73;11.57;;;8.80;1.00;;;;;;5069206;28;20240;-80
2024/03/20 00:36:36;;;;;;;21.93;12.63;;;8.90;1.00;;;;;;5063009;28;20654;-80
2024/03/20 00:39:05;;;;;;;23.83;13.17;;;8.90;1.00;;;;;;5057896;28;20203;-80
2024/03/20 00:41:34;;;;;;;21.77;12.90;;;9.00;1.00;;;;;;5052540;28;20273;-80
2024/03/20 00:44:00;;;;;;;22.00;12.93;;;9.10;1.00;;;;;;5042810;28;20200;-80
2024/03/20 00:46:27;;;;;;;19.23;11.37;;;9.00;1.00;;;;;;5046861;28;20241;-80
2024/03/20 00:48:54;;;;;;;22.27;12.37;;;8.90;1.00;;;;;;5040715;28;20257;-80
2024/03/20 00:51:22;;;;;;;20.63;11.83;;;8.90;99.90;;;;;;5047452;28;20334;-80
2024/03/20 00:53:49;;;;;;;19.47;11.70;;;8.90;99.90;;;;;;5046650;28;20256;-80
2024/03/20 00:56:17;;;;;;;21.50;12.90;;;8.90;99.90;;;;;;5048111;28;20625;-80
2024/03/20 00:58:45;;;;;;;24.00;13.63;;;8.90;99.90;;;;;;5050348;28;20238;-81
2024/03/20 01:01:13;;;;;;;22.37;12.10;;;9.00;99.90;;;;;;5052135;28;20685;-80
2024/03/20 01:03:40;;;;;;;25.80;13.80;;;9.10;99.90;;;;;;5057324;28;20201;-80
2024/03/20 01:06:07;;;;;;;24.07;13.27;;;9.10;99.90;;;;;;5049957;28;20779;-80
2024/03/20 01:08:36;;;;;;;25.63;14.43;;;9.20;40.80;;;;;;5054976;28;20257;-80
2024/03/20 01:11:03;;;;;;;22.50;12.60;;;9.30;1.00;;;;;;5056260;28;20210;-80
2024/03/20 01:13:30;;;;;;;20.93;12.70;;;9.30;1.00;;;;;;5060136;28;20248;-80
2024/03/20 01:15:58;;;;;;;20.10;11.20;;;9.20;1.00;;;;;;5051585;28;20233;-80
2024/03/20 01:18:25;;;;;;;17.53;11.37;;;9.00;1.00;;;;;;5053247;28;20245;-80
2024/03/20 01:20:52;;;;;;;19.73;12.10;;;8.80;99.90;;;;;;5056333;28;20235;-80
2024/03/20 01:23:20;;;;;;;20.83;12.20;;;8.80;1.00;;;;;;5053853;28;20231;-80
2024/03/20 01:25:46;;;;;;;23.30;13.10;;;9.00;1.00;;;;;;5057486;28;20203;-80
2024/03/20 01:28:13;;;;;;;19.13;12.20;;;8.90;99.90;;;;;;5061387;28;20264;-80
2024/03/20 01:30:40;;;;;;;18.33;11.60;;;9.00;1.00;;;;;;5067253;28;20230;-80
2024/03/20 01:33:09;;;;;;;21.03;13.33;;;9.10;1.00;;;;;;5058347;28;20323;-80
2024/03/20 01:35:36;;;;;;;20.60;13.10;;;9.00;1.00;;;;;;5050140;28;20253;-80
2024/03/20 01:38:03;;;;;;;21.53;12.97;;;9.00;1.00;;;;;;5061154;28;20202;-80
2024/03/20 01:40:29;;;;;;;22.10;13.97;;;9.00;1.00;;;;;;5062764;28;20206;-80
2024/03/20 01:42:56;;;;;;;20.90;12.93;;;9.10;1.00;;;;;;5045368;28;20247;-80
2024/03/20 01:45:23;;;;;;;21.50;13.03;;;9.10;1.00;;;;;;5036849;28;20300;-80
2024/03/20 01:47:50;;;;;;;24.47;13.57;;;9.10;1.00;;;;;;5044230;28;20204;-80
2024/03/20 01:50:19;;;;;;;23.77;14.20;;;9.20;99.90;;;;;;5041263;28;20688;-80
2024/03/20 01:52:54;;;;;;;21.60;12.57;;;9.20;1.00;;;;;;5039211;28;20240;-80
2024/03/20 01:55:22;;;;;;;22.50;13.33;;;9.00;1.00;;;;;;5048585;28;20211;-80
2024/03/20 01:57:49;;;;;;;26.90;13.37;;;9.00;1.00;;;;;;5047646;28;20234;-80
2024/03/20 02:00:21;;;;;;;27.70;13.40;;;9.00;1.00;;;;;;5048887;28;20290;-80
2024/03/20 02:02:49;;;;;;;22.47;13.50;;;8.90;1.00;;;;;;5048733;28;20756;-80
2024/03/20 02:05:17;;;;;;;23.67;13.73;;;8.90;1.00;;;;;;5055646;28;20289;-80
2024/03/20 02:07:45;;;;;;;23.60;12.97;;;9.00;99.90;;;;;;5055212;28;20213;-80
2024/03/20 02:10:12;;;;;;;22.77;12.50;;;8.90;99.90;;;;;;5058527;28;20291;-80
2024/03/20 02:12:39;;;;;;;22.43;13.17;;;8.80;99.90;;;;;;5061022;28;20305;-81
2024/03/20 02:15:09;;;;;;;26.27;13.97;;;8.80;99.90;;;;;;5061083;28;20208;-80
2024/03/20 02:17:37;;;;;;;23.07;13.10;;;8.90;99.90;;;;;;5055929;28;20198;-80
2024/03/20 02:20:05;;;;;;;21.83;13.20;;;8.90;99.90;;;;;;5061289;28;20214;-81
2024/03/20 02:22:36;;;;;;;23.63;13.57;;;9.10;1.00;;;;;;5060307;28;20705;-80
2024/03/20 02:25:04;;;;;;;21.60;12.83;;;9.00;1.00;;;;;;5060497;28;20199;-80
2024/03/20 02:27:31;;;;;;;23.67;13.93;;;8.80;59.80;;;;;;5057773;28;20221;-80
2024/03/20 02:29:58;;;;;;;23.30;13.83;;;8.60;1.00;;;;;;5060368;28;20660;-80
2024/03/20 02:32:24;;;;;;;22.80;13.63;;;8.60;1.00;;;;;;5054287;28;20653;-80
2024/03/20 02:34:52;;;;;;;25.93;14.20;;;8.70;1.00;;;;;;5067137;28;20253;-80
2024/03/20 02:37:19;;;;;;;24.80;13.97;;;8.60;1.00;;;;;;5069610;28;20202;-80
2024/03/20 02:39:47;;;;;;;23.50;13.77;;;8.70;1.00;;;;;;5066910;28;20271;-80
2024/03/20 02:42:14;;;;;;;28.53;14.03;;;8.70;99.90;;;;;;5057680;28;20258;-80
2024/03/20 02:44:41;;;;;;;24.07;13.43;;;8.90;99.90;;;;;;5054898;28;20286;-80
2024/03/20 02:47:08;;;;;;;23.07;13.50;;;8.80;99.90;;;;;;5055259;28;20269;-80
2024/03/20 02:49:34;;;;;;;24.03;13.37;;;8.80;99.90;;;;;;5052171;28;20203;-80
2024/03/20 02:52:01;;;;;;;27.17;14.07;;;8.80;99.90;;;;;;5045010;28;20222;-80
2024/03/20 02:54:29;;;;;;;27.23;13.83;;;8.80;99.90;;;;;;5049610;28;20301;-80
2024/03/20 02:56:57;;;;;;;21.63;12.07;;;8.70;42.40;;;;;;5048597;28;20265;-80
2024/03/20 02:59:24;;;;;;;24.07;13.33;;;8.60;94.10;;;;;;5046680;28;20231;-80
2024/03/20 03:01:51;;;;;;;26.50;13.47;;;8.70;99.90;;;;;;5050626;28;20273;-80
2024/03/20 03:04:18;;;;;;;25.07;13.97;;;8.70;99.90;;;;;;5046268;28;20227;-80
2024/03/20 03:06:44;;;;;;;26.23;12.83;;;8.60;99.90;;;;;;5051881;28;20554;-80
2024/03/20 03:09:16;;;;;;;24.93;13.10;;;8.60;99.90;;;;;;5053362;28;20239;-80
2024/03/20 03:11:43;;;;;;;23.40;12.43;;;8.60;99.90;;;;;;5053382;28;20273;-80
2024/03/20 03:14:12;;;;;;;25.40;12.90;;;8.50;99.90;;;;;;5050097;28;20204;-80
2024/03/20 03:16:39;;;;;;;21.57;13.07;;;8.50;99.90;;;;;;5052561;28;20286;-80
2024/03/20 03:19:07;;;;;;;24.40;12.77;;;8.60;99.90;;;;;;5054656;28;20281;-80
2024/03/20 03:21:35;;;;;;;24.17;12.93;;;8.70;95.20;;;;;;5058395;28;20650;-80
2024/03/20 03:24:03;;;;;;;24.13;13.47;;;8.80;1.00;;;;;;5054641;28;20286;-80
2024/03/20 03:26:31;;;;;;;22.87;12.67;;;8.70;1.00;;;;;;5055248;28;20205;-80
2024/03/20 03:28:59;;;;;;;22.97;13.13;;;8.80;1.00;;;;;;5056512;28;20213;-80
2024/03/20 03:31:27;;;;;;;25.23;13.37;;;8.80;1.00;;;;;;5065588;28;20222;-80
2024/03/20 03:33:54;;;;;;;23.50;12.43;;;8.90;1.00;;;;;;5060544;28;20226;-80
2024/03/20 03:36:21;;;;;;;22.53;13.37;;;8.80;1.00;;;;;;5062547;28;20676;-80
2024/03/20 03:38:48;;;;;;;23.17;12.60;;;8.90;1.00;;;;;;5055669;28;20203;-80
2024/03/20 03:41:15;;;;;;;36.27;22.00;;;8.80;1.00;;;;;;5053665;28;20227;-80
2024/03/20 03:43:42;;;;;;;28.77;16.77;;;8.80;1.00;;;;;;5059121;28;20227;-80
2024/03/20 03:46:09;;;;;;;25.97;13.53;;;8.80;1.00;;;;;;5051834;28;20253;-80
2024/03/20 03:48:38;;;;;;;25.00;13.13;;;8.80;1.00;;;;;;5056996;28;20570;-81
2024/03/20 03:51:05;;;;;;;25.43;12.70;;;8.80;1.00;;;;;;5051588;28;20661;-81
2024/03/20 03:53:33;;;;;;;23.83;13.10;;;8.70;1.00;;;;;;5049937;28;20241;-80
2024/03/20 03:56:00;;;;;;;26.00;13.73;;;8.70;1.00;;;;;;5047470;28;20281;-80
2024/03/20 03:58:27;;;;;;;23.33;13.20;;;8.70;1.00;;;;;;5051656;28;20203;-81
2024/03/20 04:00:54;;;;;;;22.63;12.17;;;8.60;1.00;;;;;;5042679;28;20238;-79
2024/03/20 04:03:27;;;;;;;22.83;12.87;;;8.50;1.00;;;;;;5047856;28;20191;-80
2024/03/20 04:05:58;;;;;;;26.10;14.07;;;8.50;1.00;;;;;;5048225;28;20238;-80
2024/03/20 04:08:25;;;;;;;22.33;12.47;;;8.40;1.00;;;;;;5054999;28;20736;-80
2024/03/20 04:10:52;;;;;;;25.80;13.17;;;8.40;1.00;;;;;;5045424;28;20641;-80
2024/03/20 04:13:19;;;;;;;24.40;13.40;;;8.30;1.00;;;;;;5053403;28;20223;-80
2024/03/20 04:15:46;;;;;;;23.10;13.33;;;8.30;1.00;;;;;;5048110;28;20677;-79
2024/03/20 04:18:13;;;;;;;23.13;12.90;;;8.10;51.50;;;;;;5056437;28;20233;-79
2024/03/20 04:20:40;;;;;;;24.53;13.93;;;8.00;99.90;;;;;;5051912;28;20209;-79
2024/03/20 04:23:09;;;;;;;24.03;13.03;;;8.10;1.00;;;;;;5052260;28;20233;-79
2024/03/20 04:25:36;;;;;;;24.03;12.63;;;8.10;1.00;;;;;;5050391;28;20734;-80
2024/03/20 04:28:04;;;;;;;26.07;13.37;;;8.20;1.00;;;;;;5056278;28;20634;-79
2024/03/20 04:30:31;;;;;;;22.80;12.70;;;8.20;1.00;;;;;;5050437;28;20222;-79
2024/03/20 04:32:58;;;;;;;24.90;14.37;;;8.20;1.00;;;;;;5054501;28;20696;-80
2024/03/20 04:35:25;;;;;;;22.63;13.57;;;8.30;1.00;;;;;;5068946;28;20240;-80
2024/03/20 04:37:52;;;;;;;24.00;13.50;;;8.20;1.00;;;;;;5065276;28;20191;-80
2024/03/20 04:40:21;;;;;;;23.60;13.90;;;8.20;1.00;;;;;;5052044;28;20235;-80
2024/03/20 04:42:48;;;;;;;25.07;14.03;;;8.20;1.00;;;;;;5050680;28;20214;-79
2024/03/20 04:45:14;;;;;;;25.47;14.00;;;8.30;1.00;;;;;;5056762;28;20289;-80
2024/03/20 04:47:41;;;;;;;24.33;13.77;;;8.40;1.00;;;;;;5057829;28;20215;-79
2024/03/20 04:50:11;;;;;;;26.77;15.00;;;8.40;1.00;;;;;;5053665;28;20265;-80
2024/03/20 04:52:38;;;;;;;24.53;14.40;;;8.50;1.00;;;;;;5059711;28;20222;-80
2024/03/20 04:55:06;;;;;;;24.43;14.23;;;8.50;1.00;;;;;;5054775;28;20227;-79
2024/03/20 04:57:34;;;;;;;24.90;13.13;;;8.50;1.00;;;;;;5055362;28;20202;-79
2024/03/20 05:00:05;;;;;;;22.07;12.67;;;8.50;99.90;;;;;;5048648;28;20234;-79
2024/03/20 05:02:32;;;;;;;26.30;13.63;;;8.50;1.00;;;;;;5054285;28;20223;-79
2024/03/20 05:04:58;;;;;;;23.60;13.67;;;8.50;99.90;;;;;;5054364;28;20468;-79
2024/03/20 05:07:25;;;;;;;24.30;13.77;;;8.60;1.00;;;;;;5049208;28;20238;-79
2024/03/20 05:09:52;;;;;;;26.03;13.73;;;8.50;1.00;;;;;;5047135;28;20650;-80
2024/03/20 05:12:19;;;;;;;26.97;13.97;;;8.40;1.00;;;;;;5052903;28;20270;-80
2024/03/20 05:14:47;;;;;;;25.57;14.00;;;8.40;1.00;;;;;;5054982;28;20206;-79
2024/03/20 05:17:14;;;;;;;22.90;12.37;;;8.50;1.00;;;;;;5057218;28;20239;-79
2024/03/20 05:19:40;;;;;;;21.30;12.53;;;8.50;1.00;;;;;;5058527;28;20711;-80
2024/03/20 05:22:07;;;;;;;21.07;12.43;;;8.50;1.00;;;;;;5053726;28;20223;-80
2024/03/20 05:24:33;;;;;;;29.70;12.57;;;8.40;99.90;;;;;;5053223;28;20199;-80
2024/03/20 05:27:00;;;;;;;20.87;12.67;;;8.40;99.90;;;;;;5057719;28;20253;-80
2024/03/20 05:29:26;;;;;;;22.97;12.87;;;8.50;1.00;;;;;;5056451;28;20710;-79
2024/03/20 05:31:54;;;;;;;21.37;12.93;;;8.50;1.00;;;;;;5063257;28;20249;-79
2024/03/20 05:34:20;;;;;;;23.20;12.93;;;8.60;99.90;;;;;;5061500;28;20254;-79
2024/03/20 05:36:47;;;;;;;22.80;13.17;;;8.60;99.90;;;;;;5069473;28;20272;-80
2024/03/20 05:39:13;;;;;;;23.97;12.87;;;8.60;99.90;;;;;;5068170;28;20512;-79
2024/03/20 05:41:40;;;;;;;23.33;13.53;;;8.70;99.90;;;;;;5066082;28;20211;-79
2024/03/20 05:44:06;;;;;;;24.17;14.60;;;8.70;21.80;;;;;;5062083;28;20259;-79
2024/03/20 05:46:33;;;;;;;20.53;12.00;;;8.80;1.00;;;;;;5050832;28;20731;-79
2024/03/20 05:49:01;;;;;;;22.37;12.60;;;8.80;1.00;;;;;;5060810;28;20659;-79
2024/03/20 05:51:28;;;;;;;22.27;12.83;;;8.80;1.00;;;;;;5055968;28;20329;-79
2024/03/20 05:53:54;;;;;;;23.87;13.60;;;8.70;1.00;;;;;;5057349;28;20272;-79
2024/03/20 05:56:21;;;;;;;23.87;13.43;;;8.80;1.00;;;;;;5060008;28;20191;-80
2024/03/20 05:58:47;;;;;;;25.73;13.90;;;8.90;1.00;;;;;;5056918;28;20207;-79
2024/03/20 06:01:13;;;;;;;23.53;14.27;;;8.90;1.00;;;;;;5061004;28;20222;-79
2024/03/20 06:03:40;;;;;;;23.13;13.10;;;9.00;1.00;;;;;;5067249;28;20198;-79
2024/03/20 06:06:08;;;;;;;29.83;13.70;;;9.00;1.00;;;;;;5053047;28;20246;-80
2024/03/20 06:08:35;;;;;;;20.63;12.57;;;9.00;1.00;;;;;;5049995;28;20207;-80
2024/03/20 06:11:01;;;;;;;19.90;12.50;;;9.10;1.00;;;;;;5052561;28;20235;-80
2024/03/20 06:13:29;;;;;;;24.87;13.90;;;9.00;1.00;;;;;;5058291;28;20226;-79
2024/03/20 06:15:55;;;;;;;21.77;12.53;;;9.00;1.00;;;;;;5059632;28;20293;-80
2024/03/20 06:18:22;;;;;;;22.90;13.00;;;9.00;1.00;;;;;;5053553;28;20196;-80
2024/03/20 06:20:47;;;;;;;23.20;13.13;;;9.10;1.00;;;;;;5063936;28;20204;-80
2024/03/20 06:23:16;;;;;;;23.80;12.80;;;9.20;1.00;;;;;;5062817;28;20258;-80
2024/03/20 06:25:42;;;;;;;21.30;12.50;;;9.20;1.00;;;;;;5063925;28;20238;-79
2024/03/20 06:28:09;;;;;;;23.80;13.53;;;9.20;1.00;;;;;;5057119;28;20199;-79
2024/03/20 06:30:34;;;;;;;22.37;13.03;;;9.10;1.00;;;;;;5064976;28;20249;-79
2024/03/20 06:33:02;;;;;;;23.53;13.17;;;9.10;1.00;;;;;;5066888;28;20677;-79
2024/03/20 06:35:28;;;;;;;23.77;13.83;;;9.20;1.00;;;;;;5067475;28;20213;-79
2024/03/20 06:37:55;;;;;;;25.40;13.57;;;9.30;1.00;;;;;;5073133;28;20195;-79
2024/03/20 06:40:31;;;;;;;25.50;14.20;;;9.30;1.00;;;;;;5056499;28;20222;-79
2024/03/20 06:42:59;;;;;;;22.70;13.53;;;9.40;1.00;;;;;;5053676;28;20219;-80
2024/03/20 06:45:31;;;;;;;25.13;13.67;;;9.40;1.00;;;;;;5055936;28;20195;-80
2024/03/20 06:47:58;;;;;;;24.93;13.37;;;9.50;1.00;;;;;;5051064;28;20621;-79
2024/03/20 06:50:27;;;;;;;22.43;13.30;;;9.60;99.90;;;;;;5056698;28;20207;-79
2024/03/20 06:52:54;;;;;;;21.87;12.83;;;9.70;99.90;;;;;;5053388;28;20670;-80
2024/03/20 06:55:21;;;;;;;23.97;12.70;;;9.70;18.90;;;;;;5058061;28;20203;-79
2024/03/20 06:57:49;;;;;;;24.50;13.93;;;9.80;36.20;;;;;;5056364;28;20253;-79
2024/03/20 07:00:17;;;;;;;26.07;14.50;;;9.90;75.00;;;;;;5069486;28;20293;-80
2024/03/20 07:02:45;;;;;;;21.53;13.23;;;10.00;1.00;;;;;;5060111;28;20276;-80
2024/03/20 07:05:13;;;;;;;24.20;14.07;;;10.10;1.00;;;;;;5062358;28;20564;-79
2024/03/20 07:07:40;;;;;;;24.47;13.47;;;10.20;1.00;;;;;;5062094;28;20625;-80
2024/03/20 07:10:07;;;;;;;20.57;12.73;;;10.30;1.00;;;;;;5062469;28;20226;-80
2024/03/20 07:12:36;;;;;;;22.03;13.77;;;10.40;1.00;;;;;;5054872;28;20611;-79
2024/03/20 07:15:06;;;;;;;20.57;12.53;;;10.50;1.00;;;;;;5050117;28;20285;-80
2024/03/20 07:17:33;;;;;;;24.67;13.13;;;10.50;1.00;;;;;;5060906;28;20222;-79
2024/03/20 07:19:59;;;;;;;21.67;13.20;;;10.60;1.00;;;;;;5053777;28;20244;-80
2024/03/20 07:22:26;;;;;;;23.90;13.90;;;10.80;1.00;;;;;;5062630;28;20227;-80
2024/03/20 07:24:52;;;;;;;21.03;12.67;;;10.90;1.00;;;;;;5064226;28;20222;-79
2024/03/20 07:27:19;;;;;;;21.37;13.50;;;11.00;99.90;;;;;;5060384;28;20206;-79
2024/03/20 07:29:46;;;;;;;19.13;12.33;;;11.10;99.90;;;;;;5066810;28;20205;-80
2024/03/20 07:32:13;;;;;;;22.07;12.97;;;11.30;44.80;;;;;;5059264;28;20295;-79
2024/03/20 07:34:39;;;;;;;24.07;13.17;;;11.40;1.00;;;;;;5068453;28;20249;-80
2024/03/20 07:37:06;;;;;;;23.90;12.43;;;11.60;1.00;;;;;;5069995;28;20194;-80
2024/03/20 07:39:33;;;;;;;22.60;13.00;;;11.90;1.00;;;;;;5062444;28;20285;-80
2024/03/20 07:42:03;;;;;;;20.90;12.17;;;12.10;99.90;;;;;;5058460;28;20222;-80
2024/03/20 07:44:29;;;;;;;24.67;13.57;;;12.20;99.90;;;;;;5046551;28;20207;-80
2024/03/20 07:46:58;;;;;;;23.60;14.00;;;12.20;99.90;;;;;;5048454;28;20212;-80
2024/03/20 07:49:24;;;;;;;22.97;13.03;;;12.20;99.90;;;;;;5052793;28;20234;-80
2024/03/20 07:51:51;;;;;;;26.03;13.83;;;12.00;99.90;;;;;;5048473;28;20691;-79
2024/03/20 07:54:23;;;;;;;22.57;12.33;;;12.00;99.90;;;;;;5052472;28;20211;-79
2024/03/20 07:56:51;;;;;;;20.10;12.53;;;12.10;16.70;;;;;;5056369;28;20238;-80
2024/03/20 07:59:17;;;;;;;22.83;12.87;;;12.70;1.00;;;;;;5055663;28;20199;-80
2024/03/20 08:01:44;;;;;;;27.57;13.03;;;13.00;1.00;;;;;;5054847;28;20748;-80
2024/03/20 08:04:11;;;;;;;19.43;12.20;;;13.60;1.00;;;;;;5058098;28;20199;-80
2024/03/20 08:06:38;;;;;;;22.23;13.23;;;13.60;1.00;;;;;;5058680;28;20261;-80
2024/03/20 08:09:05;;;;;;;19.70;11.10;;;13.40;1.00;;;;;;5053510;28;20235;-80
2024/03/20 08:11:32;;;;;;;21.70;11.55;;;13.30;1.00;;;;;;5061003;28;20216;-80
2024/03/20 08:13:58;;;;;;;19.17;11.73;;;13.30;1.00;;;;;;5057920;28;20218;-80
2024/03/20 08:16:27;;;;;;;20.45;12.38;;;13.30;1.00;;;;;;5061338;28;20286;-80
2024/03/20 08:18:52;;;;;;;18.40;11.97;;;13.30;1.00;;;;;;5059316;28;20202;-80
2024/03/20 08:21:21;;;;;;;19.27;11.27;;;13.40;1.00;;;;;;5061172;28;20752;-80
2024/03/20 08:23:47;;;;;;;19.13;11.80;;;13.30;1.00;;;;;;5065062;28;20194;-80
2024/03/20 08:26:14;;;;;;;16.10;10.80;;;13.20;1.00;;;;;;5060751;28;20218;-80
2024/03/20 08:28:39;;;;;;;19.27;11.60;;;13.30;1.00;;;;;;5062470;28;20207;-79
2024/03/20 08:31:09;;;;;;;18.15;10.93;;;13.30;1.00;;;;;;5056863;28;20715;-79
2024/03/20 08:33:35;;;;;;;20.57;12.03;;;13.40;1.00;;;;;;5058758;28;20221;-80
2024/03/20 08:36:08;;;;;;;19.30;11.48;;;13.60;1.00;;;;;;5069529;28;20202;-80
2024/03/20 08:38:36;;;;;;;22.17;10.95;;;13.80;1.00;;;;;;5059285;28;20762;-80
2024/03/20 08:41:03;;;;;;;20.80;11.53;;;13.90;1.00;;;;;;5056354;28;20632;-80
2024/03/20 08:43:28;;;;;;;19.70;11.43;;;13.80;1.00;;;;;;5046188;28;20273;-79
2024/03/20 08:45:55;;;;;;;18.95;11.73;;;13.70;1.00;;;;;;5047334;28;20207;-80
2024/03/20 08:48:21;;;;;;;19.63;11.48;;;13.70;1.00;;;;;;5050986;28;20195;-80
2024/03/20 08:50:50;;;;;;;22.08;12.75;;;13.70;1.00;;;;;;5050842;28;20249;-80
2024/03/20 08:53:17;;;;;;;20.23;11.70;;;13.70;1.00;;;;;;5051643;28;20203;-80
2024/03/20 08:55:46;;;;;;;20.07;11.90;;;13.70;1.00;;;;;;5051545;28;20203;-80
2024/03/20 08:58:12;;;;;;;22.27;12.43;;;13.70;1.00;;;;;;5049811;28;20229;-80
2024/03/20 09:00:39;;;;;;;18.27;11.83;;;13.80;1.00;;;;;;5054007;28;20653;-80
2024/03/20 09:03:05;;;;;;;17.67;11.07;;;14.00;1.00;;;;;;5058366;28;20254;-80
2024/03/20 09:05:33;;;;;;;18.15;11.15;;;14.10;1.00;;;;;;5055104;28;20229;-80
2024/03/20 09:07:59;;;;;;;17.27;10.30;;;14.20;1.00;;;;;;5058852;28;20545;-79
2024/03/20 09:10:26;;;;;;;19.80;10.98;;;14.30;1.00;;;;;;5061367;28;20198;-79
2024/03/20 09:12:53;;;;;;;15.93;10.05;;;14.40;1.00;;;;;;5065067;28;20359;-80
2024/03/20 09:15:20;;;;;;;18.45;10.63;;;14.50;99.90;;;;;;5067265;28;20214;-80
2024/03/20 09:17:49;;;;;;;18.85;10.48;;;14.50;99.90;;;;;;5067879;28;20221;-80
2024/03/20 09:20:16;;;;;;;21.92;11.95;;;14.60;99.90;;;;;;5066183;28;20203;-80
2024/03/20 09:22:43;;;;;;;18.30;10.90;;;14.90;99.90;;;;;;5070347;28;20229;-79
2024/03/20 09:25:10;;;;;;;18.90;10.75;;;15.20;99.90;;;;;;5059157;28;20194;-80
2024/03/20 09:27:36;;;;;;;19.10;12.07;;;15.30;99.90;;;;;;5070684;28;20206;-80
2024/03/20 09:30:06;;;;;;;16.38;10.70;;;15.50;99.90;;;;;;5068304;28;20256;-80
2024/03/20 09:32:32;;;;;;;16.60;10.25;;;15.70;99.90;;;;;;5071387;28;20249;-80
2024/03/20 09:34:59;;;;;;;14.32;9.02;;;15.70;99.90;;;;;;5073627;28;20652;-80
2024/03/20 09:37:26;;;;;;;16.20;9.77;;;15.70;92.70;;;;;;5070595;28;20203;-80
2024/03/20 09:39:53;;;;;;;16.67;9.65;;;16.10;26.80;;;;;;5064724;28;20225;-80
2024/03/20 09:42:21;;;;;;;15.75;9.57;;;16.40;11.60;;;;;;5063650;28;20594;-80
2024/03/20 09:44:48;;;;;;;15.70;9.25;;;16.80;1.00;;;;;;5043061;28;20195;-80
2024/03/20 09:47:16;;;;;;;16.17;9.32;;;17.00;1.00;;;;;;5051869;28;20361;-80
2024/03/20 09:49:46;;;;;;;17.35;9.25;;;16.90;1.00;;;;;;5056154;28;20208;-80
2024/03/20 09:52:12;;;;;;;16.58;8.75;;;17.20;1.00;;;;;;5053204;28;20227;-80
2024/03/20 09:54:39;;;;;;;13.45;8.80;;;17.20;1.00;;;;;;5053881;28;20320;-80
2024/03/20 09:57:07;;;;;;;14.70;9.38;;;17.40;1.00;;;;;;5058979;28;20685;-80
2024/03/20 09:59:33;;;;;;;15.10;8.65;;;17.90;1.00;;;;;;5055085;28;20286;-80
2024/03/20 10:02:00;;;;;;;16.25;8.60;;;17.60;1.00;;;;;;5055476;28;20303;-80
2024/03/20 10:04:29;;;;;;;11.27;7.32;;;17.60;1.00;;;;;;5060132;28;20194;-80
2024/03/20 10:06:56;;;;;;;10.82;7.07;;;17.90;1.00;;;;;;5057126;28;20553;-80
2024/03/20 10:09:29;;;;;;;10.73;6.53;;;17.90;1.00;;;;;;5065134;28;20553;-80
2024/03/20 10:11:55;;;;;;;10.18;7.20;;;17.70;1.00;;;;;;5056946;28;20227;-80
2024/03/20 10:14:23;;;;;;;11.82;7.03;;;17.70;1.00;;;;;;5066021;28;20215;-80
2024/03/20 10:16:50;;;;;;;12.45;7.53;;;17.70;1.00;;;;;;5058123;28;20246;-80
2024/03/20 10:19:16;;;;;;;13.43;8.50;;;17.70;1.00;;;;;;5063446;28;20221;-80
2024/03/20 10:21:44;;;;;;;14.40;9.07;;;17.70;1.00;;;;;;5065373;28;20226;-81
2024/03/20 10:24:16;;;;;;;12.68;8.07;;;17.60;1.00;;;;;;5066572;28;20234;-80
2024/03/20 10:26:43;;;;;;;13.68;8.38;;;17.90;1.00;;;;;;5065030;28;20684;-80
2024/03/20 10:29:13;;;;;;;14.35;8.27;;;18.40;1.00;;;;;;5068546;28;20206;-80
2024/03/20 10:31:43;;;;;;;11.85;7.50;;;18.50;1.00;;;;;;5072965;28;20210;-80
2024/03/20 10:34:13;;;;;;;10.63;6.90;;;18.70;1.00;;;;;;5070207;28;20226;-80
2024/03/20 10:36:42;;;;;;;14.32;7.55;;;18.60;1.00;;;;;;5073311;28;20201;-81
2024/03/20 10:39:17;;;;;;;12.63;7.30;;;18.40;1.00;;;;;;5066151;28;20234;-80
2024/03/20 10:41:46;;;;;;;9.57;6.28;;;18.30;1.00;;;;;;5052188;28;20223;-80
2024/03/20 10:44:16;;;;;;;11.88;7.55;;;18.50;1.00;;;;;;5050851;28;20740;-80
2024/03/20 10:46:46;;;;;;;10.60;6.78;;;18.60;1.00;;;;;;5046894;28;20202;-80
2024/03/20 10:49:17;;;;;;;13.27;7.70;;;18.30;1.00;;;;;;5047790;28;20199;-80
2024/03/20 10:51:44;;;;;;;13.90;8.63;;;18.90;1.00;;;;;;5056951;28;20224;-80
2024/03/20 10:54:12;;;;;;;12.45;6.57;;;18.70;1.00;;;;;;5051354;28;20315;-80
2024/03/20 10:56:46;;;;;;;14.32;7.90;;;18.80;1.00;;;;;;5051630;28;20198;-80
2024/03/20 10:59:15;;;;;;;14.68;8.02;;;19.10;1.00;;;;;;5051669;28;20196;-80
2024/03/20 11:01:56;;;;;;;12.02;7.78;;;19.50;1.00;;;;;;5056672;28;20688;-81
2024/03/20 11:04:36;;;;;;;13.93;7.35;;;19.70;1.00;;;;;;5056875;28;20225;-81
2024/03/20 11:07:35;;;;;;;9.00;6.53;;;19.70;1.00;;;;;;5056932;28;20192;-80
2024/03/20 11:10:17;;;;;;;12.57;7.22;;;19.40;1.00;;;;;;5054975;28;20200;-80
2024/03/20 11:12:45;;;;;;;9.20;6.60;;;18.70;1.00;;;;;;5052787;28;20713;-80
2024/03/20 11:15:15;;;;;;;10.55;6.80;;;18.70;1.00;;;;;;5061282;28;20243;-81
2024/03/20 11:17:43;;;;;;;9.85;6.30;;;18.60;1.00;;;;;;5057381;28;20209;-80
2024/03/20 11:20:41;;;;;;;10.93;6.70;;;18.30;1.00;;;;;;5064541;28;20269;-80
2024/03/20 11:23:11;;;;;;;11.88;6.43;;;18.60;1.00;;;;;;5056043;28;20222;-80
2024/03/20 11:25:38;;;;;;;10.13;5.78;;;19.10;1.00;;;;;;5064089;28;20194;-79
2024/03/20 11:28:06;;;;;;;6.90;5.35;;;19.20;1.00;;;;;;5059783;28;20240;-79
2024/03/20 11:30:32;;;;;;;9.77;5.53;;;18.50;1.00;;;;;;5063353;28;20230;-79
2024/03/20 11:32:59;;;;;;;10.02;5.00;;;18.40;1.00;;;;;;5069680;28;20250;-79
2024/03/20 11:35:27;;;;;;;8.80;5.93;;;18.60;1.00;;;;;;5069705;28;20219;-79
2024/03/20 11:37:54;;;;;;;8.95;5.85;;;18.70;1.00;;;;;;5071346;28;20217;-79
2024/03/20 11:40:20;;;;;;;9.85;5.88;;;18.70;1.00;;;;;;5063080;28;20609;-79
2024/03/20 11:42:50;;;;;;;10.40;5.53;;;18.70;1.00;;;;;;5055356;28;20725;-79
2024/03/20 11:45:18;;;;;;;11.13;5.15;;;18.80;1.00;;;;;;5041270;28;20239;-79
2024/03/20 11:47:44;;;;;;;7.75;5.15;;;19.30;1.00;;;;;;5039016;28;20273;-79
2024/03/20 11:50:14;;;;;;;7.65;5.05;;;19.40;1.00;;;;;;5046243;28;20202;-79
2024/03/20 11:52:40;;;;;;;10.48;5.85;;;19.10;1.00;;;;;;5043541;28;20219;-79
2024/03/20 11:55:11;;;;;;;9.05;5.50;;;19.00;1.00;;;;;;5045907;28;20293;-79
2024/03/20 11:57:40;;;;;;;9.23;6.15;;;19.00;1.00;;;;;;5044891;28;20234;-79
2024/03/20 12:00:12;;;;;;;10.65;6.07;;;19.10;1.00;;;;;;5045464;28;20218;-79
2024/03/20 12:02:38;;;;;;;12.05;6.95;;;19.10;1.00;;;;;;5052479;28;20300;-79
2024/03/20 12:05:09;;;;;;;10.02;7.10;;;18.80;1.00;;;;;;5051117;28;20208;-79
2024/03/20 12:07:36;;;;;;;13.38;7.63;;;18.60;1.00;;;;;;5048384;28;20290;-79
2024/03/20 12:10:04;;;;;;;12.13;7.43;;;18.90;1.00;;;;;;5050821;28;20195;-79
2024/03/20 12:12:30;;;;;;;12.57;7.78;;;19.20;1.00;;;;;;5056735;28;20280;-79
2024/03/20 12:14:59;;;;;;;12.85;7.93;;;19.50;1.00;;;;;;5054753;28;20218;-79
2024/03/20 12:17:27;;;;;;;11.75;7.45;;;19.60;1.00;;;;;;5060002;28;20719;-79
2024/03/20 12:19:54;;;;;;;14.43;8.00;;;19.60;1.00;;;;;;5058966;28;20198;-79
2024/03/20 12:22:21;;;;;;;13.85;8.43;;;20.00;1.00;;;;;;5054256;28;20739;-79
2024/03/20 12:24:51;;;;;;;12.85;7.40;;;20.10;1.00;;;;;;5056378;28;20194;-79
2024/03/20 12:27:17;;;;;;;13.65;8.20;;;19.90;1.00;;;;;;5064027;28;20595;-79
2024/03/20 12:29:44;;;;;;;14.07;8.02;;;20.00;1.00;;;;;;5062571;28;20202;-79
2024/03/20 12:32:12;;;;;;;12.82;7.65;;;19.90;1.00;;;;;;5064128;28;20250;-79
2024/03/20 12:34:40;;;;;;;13.25;8.10;;;20.00;1.00;;;;;;5069885;28;20222;-79
2024/03/20 12:37:09;;;;;;;10.90;6.50;;;20.10;1.00;;;;;;5068419;28;20205;-79
2024/03/20 12:39:36;;;;;;;9.50;5.85;;;20.20;1.00;;;;;;5050128;28;20196;-80
2024/03/20 12:42:02;;;;;;;7.85;5.13;;;20.30;1.00;;;;;;5050578;28;20632;-79
2024/03/20 12:44:29;;;;;;;10.25;5.63;;;20.40;1.00;;;;;;5042218;28;20325;-80
2024/03/20 12:46:56;;;;;;;9.05;6.03;;;20.20;99.90;;;;;;5042932;28;20484;-80